sensor_id;sensor_type;location;lat;lon;timestamp;pressure;altitude;pressure_sealevel;temperature;humidity
60725;BME280;59881;36.722;-4.462;2023-04-24T00:02:23;100196.63;;;13.58;54.17
60725;BME280;59881;36.722;-4.462;2023-04-24T00:04:49;100737.69;;;16.89;54.87
60725;BME280;59881;36.722;-4.462;2023-04-24T00:07:15;100398.19;;;14.67;54.48
60725;BME280;59881;36.722;-4.462;2023-04-24T00:09:45;100737.81;;;16.68;54.46
60725;BME280;59881;36.722;-4.462;2023-04-24T00:12:10;100752.38;;;16.54;54.96
60725;BME280;59881;36.722;-4.462;2023-04-24T00:14:36;100570.41;;;15.40;54.73
60725;BME280;59881;36.722;-4.462;2023-04-24T00:17:02;100564.09;;;15.31;55.08
60725;BME280;59881;36.722;-4.462;2023-04-24T00:19:28;100739.09;;;16.54;56.30
60725;BME280;59881;36.722;-4.462;2023-04-24T00:21:54;100470.16;;;14.93;56.65
60725;BME280;59881;36.722;-4.462;2023-04-24T00:24:20;100546.91;;;15.25;56.60
60725;BME280;59881;36.722;-4.462;2023-04-24T00:26:45;100733.19;;;16.50;57.05
60725;BME280;59881;36.722;-4.462;2023-04-24T00:29:11;100536.53;;;15.22;57.46
60725;BME280;59881;36.722;-4.462;2023-04-24T00:31:36;100543.09;;;15.18;57.45
60725;BME280;59881;36.722;-4.462;2023-04-24T00:34:03;100637.19;;;15.85;56.55
60725;BME280;59881;36.722;-4.462;2023-04-24T00:36:29;100725.38;;;16.39;56.36
60725;BME280;59881;36.722;-4.462;2023-04-24T00:38:56;100507.16;;;14.95;55.82
60725;BME280;59881;36.722;-4.462;2023-04-24T00:41:21;100750.25;;;16.28;55.77
60725;BME280;59881;36.722;-4.462;2023-04-24T00:43:47;100555.81;;;15.24;55.54
60725;BME280;59881;36.722;-4.462;2023-04-24T00:46:14;100713.56;;;16.12;55.37
60725;BME280;59881;36.722;-4.462;2023-04-24T00:48:40;100584.19;;;15.34;54.95
60725;BME280;59881;36.722;-4.462;2023-04-24T00:51:06;100599.41;;;15.31;54.95
60725;BME280;59881;36.722;-4.462;2023-04-24T00:53:31;100656.25;;;15.69;54.69
60725;BME280;59881;36.722;-4.462;2023-04-24T00:55:58;100711.03;;;16.01;54.44
60725;BME280;59881;36.722;-4.462;2023-04-24T00:58:24;100705.56;;;15.93;54.36
60725;BME280;59881;36.722;-4.462;2023-04-24T01:00:51;100652.03;;;15.57;54.08
60725;BME280;59881;36.722;-4.462;2023-04-24T01:03:20;100715.59;;;15.89;54.21
60725;BME280;59881;36.722;-4.462;2023-04-24T01:05:49;100589.59;;;15.13;54.40
60725;BME280;59881;36.722;-4.462;2023-04-24T01:08:14;100591.63;;;14.99;54.38
60725;BME280;59881;36.722;-4.462;2023-04-24T01:10:41;100472.91;;;14.30;54.23
60725;BME280;59881;36.722;-4.462;2023-04-24T01:13:10;100509.66;;;14.65;54.19
60725;BME280;59881;36.722;-4.462;2023-04-24T01:15:36;100709.03;;;15.84;54.25
60725;BME280;59881;36.722;-4.462;2023-04-24T01:18:02;100718.84;;;15.83;54.38
60725;BME280;59881;36.722;-4.462;2023-04-24T01:20:27;100493.59;;;14.57;54.66
60725;BME280;59881;36.722;-4.462;2023-04-24T01:22:57;100701.91;;;15.84;54.50
60725;BME280;59881;36.722;-4.462;2023-04-24T01:25:23;100704.84;;;15.81;54.22
60725;BME280;59881;36.722;-4.462;2023-04-24T01:27:50;100585.03;;;14.94;54.16
60725;BME280;59881;36.722;-4.462;2023-04-24T01:30:16;100603.88;;;14.90;54.05
60725;BME280;59881;36.722;-4.462;2023-04-24T01:32:42;100703.56;;;15.76;54.29
60725;BME280;59881;36.722;-4.462;2023-04-24T01:35:11;100347.41;;;13.70;53.85
60725;BME280;59881;36.722;-4.462;2023-04-24T01:37:37;100515.97;;;14.64;53.81
60725;BME280;59881;36.722;-4.462;2023-04-24T01:40:04;100589.13;;;15.07;53.83
60725;BME280;59881;36.722;-4.462;2023-04-24T01:42:30;100544.75;;;14.79;53.75
60725;BME280;59881;36.722;-4.462;2023-04-24T01:44:56;100717.66;;;15.76;53.77
60725;BME280;59881;36.722;-4.462;2023-04-24T01:47:23;100524.03;;;14.63;54.02
60725;BME280;59881;36.722;-4.462;2023-04-24T01:49:50;100567.84;;;14.88;54.33
60725;BME280;59881;36.722;-4.462;2023-04-24T01:52:15;100342.88;;;13.51;54.99
60725;BME280;59881;36.722;-4.462;2023-04-24T01:54:43;100706.66;;;15.81;55.86
60725;BME280;59881;36.722;-4.462;2023-04-24T01:57:08;100539.59;;;14.77;55.89
60725;BME280;59881;36.722;-4.462;2023-04-24T01:59:34;100715.22;;;15.94;55.72
60725;BME280;59881;36.722;-4.462;2023-04-24T02:02:02;100610.75;;;15.34;56.08
60725;BME280;59881;36.722;-4.462;2023-04-24T02:04:28;100486.84;;;14.53;56.42
60725;BME280;59881;36.722;-4.462;2023-04-24T02:06:54;100566.25;;;15.06;56.43
60725;BME280;59881;36.722;-4.462;2023-04-24T02:09:19;100426.63;;;14.03;56.65
60725;BME280;59881;36.722;-4.462;2023-04-24T02:11:45;100527.72;;;14.72;56.85
60725;BME280;59881;36.722;-4.462;2023-04-24T02:14:11;100699.22;;;15.75;57.67
60725;BME280;59881;36.722;-4.462;2023-04-24T02:16:36;100659.94;;;15.38;58.16
60725;BME280;59881;36.722;-4.462;2023-04-24T02:19:02;100660.38;;;15.43;58.16
60725;BME280;59881;36.722;-4.462;2023-04-24T02:21:28;100716.63;;;15.67;58.10
60725;BME280;59881;36.722;-4.462;2023-04-24T02:23:54;100539.63;;;14.56;56.88
60725;BME280;59881;36.722;-4.462;2023-04-24T02:26:19;100653.78;;;15.37;55.20
60725;BME280;59881;36.722;-4.462;2023-04-24T02:28:45;100583.31;;;14.83;54.08
60725;BME280;59881;36.722;-4.462;2023-04-24T02:31:10;100633.91;;;15.31;52.56
60725;BME280;59881;36.722;-4.462;2023-04-24T02:33:36;100588.91;;;14.89;52.49
60725;BME280;59881;36.722;-4.462;2023-04-24T02:36:02;100715.06;;;15.55;52.49
60725;BME280;59881;36.722;-4.462;2023-04-24T02:38:28;100555.06;;;14.72;52.18
60725;BME280;59881;36.722;-4.462;2023-04-24T02:40:54;100708.22;;;15.52;51.40
60725;BME280;59881;36.722;-4.462;2023-04-24T02:43:20;100551.56;;;14.72;50.68
60725;BME280;59881;36.722;-4.462;2023-04-24T02:45:45;100554.75;;;14.65;51.00
60725;BME280;59881;36.722;-4.462;2023-04-24T02:48:11;100693.94;;;15.53;51.05
60725;BME280;59881;36.722;-4.462;2023-04-24T02:50:36;100709.44;;;15.48;51.31
60725;BME280;59881;36.722;-4.462;2023-04-24T02:53:02;100697.84;;;15.49;52.22
60725;BME280;59881;36.722;-4.462;2023-04-24T02:55:28;100611.44;;;14.95;52.36
60725;BME280;59881;36.722;-4.462;2023-04-24T02:57:53;100508.94;;;14.33;52.79
60725;BME280;59881;36.722;-4.462;2023-04-24T03:00:19;100603.97;;;14.79;53.38
60725;BME280;59881;36.722;-4.462;2023-04-24T03:02:45;100523.16;;;14.32;53.62
60725;BME280;59881;36.722;-4.462;2023-04-24T03:05:10;100436.09;;;13.75;53.96
60725;BME280;59881;36.722;-4.462;2023-04-24T03:07:37;100537.78;;;14.26;54.35
60725;BME280;59881;36.722;-4.462;2023-04-24T03:10:04;100653.91;;;15.05;54.90
60725;BME280;59881;36.722;-4.462;2023-04-24T03:12:31;100512.69;;;14.09;55.60
60725;BME280;59881;36.722;-4.462;2023-04-24T03:14:56;100726.03;;;15.41;55.82
60725;BME280;59881;36.722;-4.462;2023-04-24T03:17:22;100696.16;;;15.18;55.25
60725;BME280;59881;36.722;-4.462;2023-04-24T03:19:48;100630.94;;;14.63;55.30
60725;BME280;59881;36.722;-4.462;2023-04-24T03:22:13;100715.56;;;15.18;55.34
60725;BME280;59881;36.722;-4.462;2023-04-24T03:24:39;100584.47;;;14.27;55.23
60725;BME280;59881;36.722;-4.462;2023-04-24T03:27:05;100744.72;;;15.08;55.16
60725;BME280;59881;36.722;-4.462;2023-04-24T03:29:30;100759.94;;;15.06;55.37
60725;BME280;59881;36.722;-4.462;2023-04-24T03:31:56;100745.34;;;15.01;55.25
60725;BME280;59881;36.722;-4.462;2023-04-24T03:34:21;100723.56;;;14.97;55.27
60725;BME280;59881;36.722;-4.462;2023-04-24T03:36:47;100377.78;;;12.69;55.18
60725;BME280;59881;36.722;-4.462;2023-04-24T03:39:13;100611.53;;;14.10;55.31
60725;BME280;59881;36.722;-4.462;2023-04-24T03:41:38;100581.28;;;13.91;55.22
60725;BME280;59881;36.722;-4.462;2023-04-24T03:44:04;100678.34;;;14.45;55.17
60725;BME280;59881;36.722;-4.462;2023-04-24T03:46:30;100769.66;;;14.85;55.25
60725;BME280;59881;36.722;-4.462;2023-04-24T03:48:55;100600.88;;;14.00;55.41
60725;BME280;59881;36.722;-4.462;2023-04-24T03:51:21;100722.44;;;14.79;55.25
60725;BME280;59881;36.722;-4.462;2023-04-24T03:53:47;100745.84;;;14.74;55.49
60725;BME280;59881;36.722;-4.462;2023-04-24T03:56:12;100222.16;;;11.54;55.37
60725;BME280;59881;36.722;-4.462;2023-04-24T03:58:38;100723.81;;;14.73;55.53
60725;BME280;59881;36.722;-4.462;2023-04-24T04:01:03;100430.22;;;12.96;55.43
60725;BME280;59881;36.722;-4.462;2023-04-24T04:03:29;100751.88;;;14.76;55.44
60725;BME280;59881;36.722;-4.462;2023-04-24T04:05:55;100198.31;;;11.56;55.46
60725;BME280;59881;36.722;-4.462;2023-04-24T04:08:20;100435.75;;;13.04;55.38
60725;BME280;59881;36.722;-4.462;2023-04-24T04:10:46;100419.91;;;12.81;55.35
60725;BME280;59881;36.722;-4.462;2023-04-24T04:13:11;100728.84;;;14.76;55.43
60725;BME280;59881;36.722;-4.462;2023-04-24T04:15:37;100699.53;;;14.57;55.27
60725;BME280;59881;36.722;-4.462;2023-04-24T04:18:03;100605.22;;;13.90;55.78
60725;BME280;59881;36.722;-4.462;2023-04-24T04:20:28;100616.09;;;13.86;55.48
60725;BME280;59881;36.722;-4.462;2023-04-24T04:22:54;100644.63;;;14.15;55.54
60725;BME280;59881;36.722;-4.462;2023-04-24T04:25:19;100507.59;;;13.32;55.54
60725;BME280;59881;36.722;-4.462;2023-04-24T04:27:48;100150.44;;;11.15;55.40
60725;BME280;59881;36.722;-4.462;2023-04-24T04:30:14;100774.31;;;14.72;55.32
60725;BME280;59881;36.722;-4.462;2023-04-24T04:32:40;100552.13;;;13.59;55.11
60725;BME280;59881;36.722;-4.462;2023-04-24T04:35:06;100315.53;;;12.10;54.87
60725;BME280;59881;36.722;-4.462;2023-04-24T04:37:34;100728.66;;;14.68;53.98
60725;BME280;59881;36.722;-4.462;2023-04-24T04:40:01;100558.13;;;13.61;53.05
60725;BME280;59881;36.722;-4.462;2023-04-24T04:42:31;100730.28;;;14.80;52.29
60725;BME280;59881;36.722;-4.462;2023-04-24T04:44:57;100757.25;;;14.85;52.07
60725;BME280;59881;36.722;-4.462;2023-04-24T04:47:23;100502.16;;;13.44;52.06
60725;BME280;59881;36.722;-4.462;2023-04-24T04:49:49;100692.63;;;14.33;52.13
60725;BME280;59881;36.722;-4.462;2023-04-24T04:52:17;100658.56;;;14.28;52.33
60725;BME280;59881;36.722;-4.462;2023-04-24T04:54:43;100533.41;;;13.39;52.48
60725;BME280;59881;36.722;-4.462;2023-04-24T04:57:08;100627.84;;;13.94;52.85
60725;BME280;59881;36.722;-4.462;2023-04-24T04:59:34;100711.97;;;14.45;53.12
60725;BME280;59881;36.722;-4.462;2023-04-24T05:02:00;100530.69;;;13.07;53.37
60725;BME280;59881;36.722;-4.462;2023-04-24T05:04:25;100764.34;;;14.64;53.56
60725;BME280;59881;36.722;-4.462;2023-04-24T05:06:52;100167.84;;;11.18;53.41
60725;BME280;59881;36.722;-4.462;2023-04-24T05:09:18;100487.50;;;13.29;53.28
60725;BME280;59881;36.722;-4.462;2023-04-24T05:11:43;100728.16;;;14.95;52.85
60725;BME280;59881;36.722;-4.462;2023-04-24T05:14:09;100528.69;;;13.86;52.13
60725;BME280;59881;36.722;-4.462;2023-04-24T05:16:35;100745.34;;;15.22;51.59
60725;BME280;59881;36.722;-4.462;2023-04-24T05:19:02;100754.59;;;15.27;51.43
60725;BME280;59881;36.722;-4.462;2023-04-24T05:21:28;100742.44;;;15.25;51.23
60725;BME280;59881;36.722;-4.462;2023-04-24T05:23:54;100642.94;;;14.67;51.28
60725;BME280;59881;36.722;-4.462;2023-04-24T05:26:19;100738.09;;;15.24;51.20
60725;BME280;59881;36.722;-4.462;2023-04-24T05:28:45;100736.16;;;15.26;51.05
60725;BME280;59881;36.722;-4.462;2023-04-24T05:31:11;100494.91;;;13.79;50.99
60725;BME280;59881;36.722;-4.462;2023-04-24T05:33:37;100748.44;;;15.27;50.62
60725;BME280;59881;36.722;-4.462;2023-04-24T05:36:03;100747.34;;;15.29;50.85
60725;BME280;59881;36.722;-4.462;2023-04-24T05:38:29;100749.88;;;15.31;50.82
60725;BME280;59881;36.722;-4.462;2023-04-24T05:40:54;100777.72;;;15.37;50.92
60725;BME280;59881;36.722;-4.462;2023-04-24T05:43:20;100604.44;;;14.52;50.58
60725;BME280;59881;36.722;-4.462;2023-04-24T05:45:45;100584.72;;;14.03;50.55
60725;BME280;59881;36.722;-4.462;2023-04-24T05:48:11;100796.69;;;15.63;50.20
60725;BME280;59881;36.722;-4.462;2023-04-24T05:50:36;100666.22;;;15.06;50.19
60725;BME280;59881;36.722;-4.462;2023-04-24T05:53:02;100573.47;;;15.45;49.29
60725;BME280;59881;36.722;-4.462;2023-04-24T05:55:27;100528.91;;;16.26;47.55
60725;BME280;59881;36.722;-4.462;2023-04-24T05:57:53;100621.59;;;17.81;45.04
60725;BME280;59881;36.722;-4.462;2023-04-24T06:00:19;100752.31;;;19.40;42.72
60725;BME280;59881;36.722;-4.462;2023-04-24T06:02:45;100745.66;;;20.13;41.06
60725;BME280;59881;36.722;-4.462;2023-04-24T06:05:12;100749.78;;;20.91;39.51
60725;BME280;59881;36.722;-4.462;2023-04-24T06:07:37;100750.00;;;21.62;37.55
60725;BME280;59881;36.722;-4.462;2023-04-24T06:10:03;100500.84;;;20.66;35.78
60725;BME280;59881;36.722;-4.462;2023-04-24T06:12:29;100658.53;;;22.19;34.80
60725;BME280;59881;36.722;-4.462;2023-04-24T06:14:54;100642.09;;;22.60;33.65
60725;BME280;59881;36.722;-4.462;2023-04-24T06:17:21;100611.34;;;23.16;32.86
60725;BME280;59881;36.722;-4.462;2023-04-24T06:19:46;100760.25;;;24.47;31.65
60725;BME280;59881;36.722;-4.462;2023-04-24T06:22:12;100739.50;;;24.90;30.79
60725;BME280;59881;36.722;-4.462;2023-04-24T06:24:39;100708.41;;;25.16;29.90
60725;BME280;59881;36.722;-4.462;2023-04-24T06:27:05;100652.75;;;25.36;29.09
60725;BME280;59881;36.722;-4.462;2023-04-24T06:29:31;100719.75;;;26.36;28.59
60725;BME280;59881;36.722;-4.462;2023-04-24T06:31:57;100631.03;;;26.06;27.94
60725;BME280;59881;36.722;-4.462;2023-04-24T06:34:22;100654.09;;;26.29;27.40
60725;BME280;59881;36.722;-4.462;2023-04-24T06:36:48;100776.38;;;26.97;27.72
60725;BME280;59881;36.722;-4.462;2023-04-24T06:39:13;100585.53;;;26.23;27.42
60725;BME280;59881;36.722;-4.462;2023-04-24T06:41:40;100627.72;;;26.84;26.83
60725;BME280;59881;36.722;-4.462;2023-04-24T06:44:06;100642.94;;;27.50;26.32
60725;BME280;59881;36.722;-4.462;2023-04-24T06:46:31;100744.06;;;28.46;25.66
60725;BME280;59881;36.722;-4.462;2023-04-24T06:48:57;100613.91;;;28.02;25.14
60725;BME280;59881;36.722;-4.462;2023-04-24T06:51:23;100749.69;;;29.26;25.09
60725;BME280;59881;36.722;-4.462;2023-04-24T06:53:49;100604.97;;;28.77;24.48
60725;BME280;59881;36.722;-4.462;2023-04-24T06:56:15;100746.41;;;29.98;24.00
60725;BME280;59881;36.722;-4.462;2023-04-24T06:58:40;100630.66;;;29.67;23.55
60725;BME280;59881;36.722;-4.462;2023-04-24T07:01:07;100752.69;;;30.83;23.08
60725;BME280;59881;36.722;-4.462;2023-04-24T07:03:32;100758.88;;;31.25;23.09
60725;BME280;59881;36.722;-4.462;2023-04-24T07:05:58;100721.50;;;31.44;21.57
60725;BME280;59881;36.722;-4.462;2023-04-24T07:08:23;100629.59;;;31.11;21.49
60725;BME280;59881;36.722;-4.462;2023-04-24T07:10:50;100758.72;;;32.36;20.73
60725;BME280;59881;36.722;-4.462;2023-04-24T07:13:16;100562.59;;;31.62;21.12
60725;BME280;59881;36.722;-4.462;2023-04-24T07:15:42;100745.63;;;33.01;19.94
60725;BME280;59881;36.722;-4.462;2023-04-24T07:18:08;100758.84;;;33.26;20.31
60725;BME280;59881;36.722;-4.462;2023-04-24T07:20:34;100758.03;;;33.65;19.72
60725;BME280;59881;36.722;-4.462;2023-04-24T07:22:59;100758.06;;;34.14;19.74
60725;BME280;59881;36.722;-4.462;2023-04-24T07:25:25;100712.31;;;34.31;18.56
60725;BME280;59881;36.722;-4.462;2023-04-24T07:27:51;100673.03;;;34.42;18.51
60725;BME280;59881;36.722;-4.462;2023-04-24T07:30:16;100663.78;;;34.86;18.34
60725;BME280;59881;36.722;-4.462;2023-04-24T07:32:42;100757.09;;;35.70;17.73
60725;BME280;59881;36.722;-4.462;2023-04-24T07:35:07;100705.84;;;35.65;17.30
60725;BME280;59881;36.722;-4.462;2023-04-24T07:37:35;100597.50;;;35.32;16.57
60725;BME280;59881;36.722;-4.462;2023-04-24T07:40:00;100774.84;;;36.56;16.85
60725;BME280;59881;36.722;-4.462;2023-04-24T07:42:26;100761.69;;;36.83;16.32
60725;BME280;59881;36.722;-4.462;2023-04-24T07:44:51;100759.44;;;37.06;16.45
60725;BME280;59881;36.722;-4.462;2023-04-24T07:47:17;100769.53;;;37.41;15.50
60725;BME280;59881;36.722;-4.462;2023-04-24T07:49:42;100690.72;;;37.37;15.30
60725;BME280;59881;36.722;-4.462;2023-04-24T07:52:08;100721.47;;;38.04;15.44
60725;BME280;59881;36.722;-4.462;2023-04-24T07:54:34;100774.97;;;38.61;14.83
60725;BME280;59881;36.722;-4.462;2023-04-24T07:56:59;100662.88;;;38.08;14.88
60725;BME280;59881;36.722;-4.462;2023-04-24T07:59:26;100785.91;;;39.06;14.82
60725;BME280;59881;36.722;-4.462;2023-04-24T08:01:51;100580.69;;;38.02;14.67
60725;BME280;59881;36.722;-4.462;2023-04-24T08:04:17;100773.19;;;39.39;14.45
60725;BME280;59881;36.722;-4.462;2023-04-24T08:06:43;100783.69;;;39.56;14.53
60725;BME280;59881;36.722;-4.462;2023-04-24T08:09:09;100788.97;;;39.77;14.30
60725;BME280;59881;36.722;-4.462;2023-04-24T08:11:34;100790.22;;;40.08;14.54
60725;BME280;59881;36.722;-4.462;2023-04-24T08:14:00;100791.72;;;40.39;15.33
60725;BME280;59881;36.722;-4.462;2023-04-24T08:16:26;100740.00;;;40.44;15.67
60725;BME280;59881;36.722;-4.462;2023-04-24T08:18:52;100782.94;;;41.16;15.11
60725;BME280;59881;36.722;-4.462;2023-04-24T08:21:18;100781.22;;;41.48;15.02
60725;BME280;59881;36.722;-4.462;2023-04-24T08:23:45;100762.09;;;41.65;14.64
60725;BME280;59881;36.722;-4.462;2023-04-24T08:26:11;100762.75;;;40.88;14.66
60725;BME280;59881;36.722;-4.462;2023-04-24T08:28:37;100807.66;;;38.73;16.64
60725;BME280;59881;36.722;-4.462;2023-04-24T08:31:03;100825.94;;;37.13;18.15
60725;BME280;59881;36.722;-4.462;2023-04-24T08:33:28;100684.47;;;35.67;19.30
60725;BME280;59881;36.722;-4.462;2023-04-24T08:36:03;100779.94;;;36.11;19.46
60725;BME280;59881;36.722;-4.462;2023-04-24T08:38:29;100787.19;;;36.43;19.55
60725;BME280;59881;36.722;-4.462;2023-04-24T08:40:57;100819.00;;;36.34;19.31
60725;BME280;59881;36.722;-4.462;2023-04-24T08:43:23;100837.25;;;36.08;18.99
60725;BME280;59881;36.722;-4.462;2023-04-24T08:45:50;100811.47;;;35.46;20.14
60725;BME280;59881;36.722;-4.462;2023-04-24T08:48:16;100809.41;;;35.20;21.97
60725;BME280;59881;36.722;-4.462;2023-04-24T08:50:43;100834.31;;;35.24;22.87
60725;BME280;59881;36.722;-4.462;2023-04-24T08:53:10;100812.22;;;34.98;24.05
60725;BME280;59881;36.722;-4.462;2023-04-24T08:55:37;100856.00;;;35.31;24.17
60725;BME280;59881;36.722;-4.462;2023-04-24T08:58:03;100707.44;;;34.66;24.22
60725;BME280;59881;36.722;-4.462;2023-04-24T09:00:29;100885.41;;;35.83;25.07
60725;BME280;59881;36.722;-4.462;2023-04-24T09:02:55;100856.25;;;35.67;26.35
60725;BME280;59881;36.722;-4.462;2023-04-24T09:05:22;100872.91;;;36.08;26.35
60725;BME280;59881;36.722;-4.462;2023-04-24T09:07:55;100830.03;;;35.81;27.04
60725;BME280;59881;36.722;-4.462;2023-04-24T09:10:23;100874.28;;;36.10;27.73
60725;BME280;59881;36.722;-4.462;2023-04-24T09:12:50;100876.25;;;36.20;27.33
60725;BME280;59881;36.722;-4.462;2023-04-24T09:15:16;100798.34;;;35.53;27.72
60725;BME280;59881;36.722;-4.462;2023-04-24T09:17:42;100537.34;;;33.67;27.85
60725;BME280;59881;36.722;-4.462;2023-04-24T09:20:08;100781.47;;;35.71;27.60
60725;BME280;59881;36.722;-4.462;2023-04-24T09:22:34;100885.78;;;37.32;25.47
60725;BME280;59881;36.722;-4.462;2023-04-24T09:25:04;100861.19;;;38.02;24.59
60725;BME280;59881;36.722;-4.462;2023-04-24T09:27:35;100897.09;;;38.26;24.66
60725;BME280;59881;36.722;-4.462;2023-04-24T09:30:02;100889.69;;;38.21;24.55
60725;BME280;59881;36.722;-4.462;2023-04-24T09:32:28;100767.09;;;37.35;25.04
60725;BME280;59881;36.722;-4.462;2023-04-24T09:40:10;100887.19;;;39.14;23.74
60725;BME280;59881;36.722;-4.462;2023-04-24T09:42:42;100891.50;;;39.79;22.69
60725;BME280;59881;36.722;-4.462;2023-04-24T09:45:09;100898.91;;;40.07;22.47
60725;BME280;59881;36.722;-4.462;2023-04-24T09:47:37;100889.06;;;40.44;21.63
60725;BME280;59881;36.722;-4.462;2023-04-24T09:50:16;100900.78;;;40.74;21.31
60725;BME280;59881;36.722;-4.462;2023-04-24T09:52:46;100781.41;;;39.87;20.85
60725;BME280;59881;36.722;-4.462;2023-04-24T09:55:18;100785.22;;;39.43;20.88
60725;BME280;59881;36.722;-4.462;2023-04-24T09:57:50;100795.59;;;39.76;20.66
60725;BME280;59881;36.722;-4.462;2023-04-24T10:00:31;100911.34;;;40.67;20.31
60725;BME280;59881;36.722;-4.462;2023-04-24T10:03:02;100891.44;;;40.70;19.53
60725;BME280;59881;36.722;-4.462;2023-04-24T10:05:35;100900.47;;;40.94;19.47
60725;BME280;59881;36.722;-4.462;2023-04-24T10:08:07;100897.72;;;40.94;19.69
60725;BME280;59881;36.722;-4.462;2023-04-24T10:10:35;100905.28;;;41.22;20.08
60725;BME280;59881;36.722;-4.462;2023-04-24T10:13:03;100900.06;;;41.20;19.64
60725;BME280;59881;36.722;-4.462;2023-04-24T10:15:29;100911.66;;;41.36;19.44
60725;BME280;59881;36.722;-4.462;2023-04-24T10:17:57;100808.78;;;40.60;19.81
60725;BME280;59881;36.722;-4.462;2023-04-24T10:20:25;100909.19;;;41.21;19.32
60725;BME280;59881;36.722;-4.462;2023-04-24T10:22:52;100884.06;;;41.77;19.06
60725;BME280;59881;36.722;-4.462;2023-04-24T10:25:23;100902.97;;;42.39;17.99
60725;BME280;59881;36.722;-4.462;2023-04-24T10:27:50;100870.72;;;42.21;18.43
60725;BME280;59881;36.722;-4.462;2023-04-24T10:30:17;100894.91;;;42.29;17.36
60725;BME280;59881;36.722;-4.462;2023-04-24T10:32:43;100860.59;;;41.47;18.68
60725;BME280;59881;36.722;-4.462;2023-04-24T10:35:13;100856.16;;;40.29;19.44
60725;BME280;59881;36.722;-4.462;2023-04-24T10:38:06;100897.59;;;39.51;20.19
60725;BME280;59881;36.722;-4.462;2023-04-24T10:40:33;100891.03;;;38.29;20.79
60725;BME280;59881;36.722;-4.462;2023-04-24T10:43:02;100900.28;;;35.22;23.82
60725;BME280;59881;36.722;-4.462;2023-04-24T10:45:27;100873.72;;;31.58;29.15
60725;BME280;59881;36.722;-4.462;2023-04-24T10:48:01;100936.69;;;29.28;32.17
60725;BME280;59881;36.722;-4.462;2023-04-24T10:50:28;100919.09;;;27.29;35.77
60725;BME280;59881;36.722;-4.462;2023-04-24T10:53:05;100940.47;;;26.14;36.96
60725;BME280;59881;36.722;-4.462;2023-04-24T10:56:06;100929.44;;;25.31;39.48
60725;BME280;59881;36.722;-4.462;2023-04-24T10:58:44;100929.19;;;24.89;40.95
60725;BME280;59881;36.722;-4.462;2023-04-24T11:01:32;100921.09;;;24.38;41.01
60725;BME280;59881;36.722;-4.462;2023-04-24T11:04:00;100920.78;;;24.33;41.70
60725;BME280;59881;36.722;-4.462;2023-04-24T11:06:34;100915.78;;;24.15;41.89
60725;BME280;59881;36.722;-4.462;2023-04-24T11:09:06;100933.78;;;24.14;41.52
60725;BME280;59881;36.722;-4.462;2023-04-24T11:11:33;100938.50;;;23.98;41.63
60725;BME280;59881;36.722;-4.462;2023-04-24T11:21:44;100927.19;;;23.87;40.93
60725;BME280;59881;36.722;-4.462;2023-04-24T11:27:17;100772.84;;;22.83;41.03
60725;BME280;59881;36.722;-4.462;2023-04-24T11:35:03;100910.19;;;23.49;41.66
60725;BME280;59881;36.722;-4.462;2023-04-24T11:37:38;100915.16;;;23.60;41.56
60725;BME280;59881;36.722;-4.462;2023-04-24T11:40:07;100913.09;;;23.62;41.73
60725;BME280;59881;36.722;-4.462;2023-04-24T11:42:37;100907.53;;;23.64;41.45
60725;BME280;59881;36.722;-4.462;2023-04-24T11:45:08;100782.50;;;22.92;41.05
60725;BME280;59881;36.722;-4.462;2023-04-24T11:47:35;100661.22;;;22.19;41.29
60725;BME280;59881;36.722;-4.462;2023-04-24T11:50:01;100895.31;;;23.61;41.12
60725;BME280;59881;36.722;-4.462;2023-04-24T11:52:27;100902.16;;;23.64;41.34
60725;BME280;59881;36.722;-4.462;2023-04-24T11:54:53;100840.06;;;23.21;41.08
60725;BME280;59881;36.722;-4.462;2023-04-24T11:57:19;100905.13;;;23.54;40.79
60725;BME280;59881;36.722;-4.462;2023-04-24T11:59:46;100891.09;;;23.44;41.01
60725;BME280;59881;36.722;-4.462;2023-04-24T12:02:25;100901.66;;;23.45;41.53
60725;BME280;59881;36.722;-4.462;2023-04-24T12:04:53;100892.56;;;23.46;41.17
60725;BME280;59881;36.722;-4.462;2023-04-24T12:07:19;100894.16;;;23.41;40.47
60725;BME280;59881;36.722;-4.462;2023-04-24T12:12:12;100895.97;;;23.25;41.03
60725;BME280;59881;36.722;-4.462;2023-04-24T12:14:57;100870.72;;;23.11;42.17
60725;BME280;59881;36.722;-4.462;2023-04-24T12:17:31;100878.50;;;23.21;41.97
60725;BME280;59881;36.722;-4.462;2023-04-24T12:20:05;100879.16;;;23.23;41.89
60725;BME280;59881;36.722;-4.462;2023-04-24T12:22:57;100875.53;;;23.16;41.61
60725;BME280;59881;36.722;-4.462;2023-04-24T12:25:25;100884.97;;;23.12;42.07
60725;BME280;59881;36.722;-4.462;2023-04-24T12:28:11;100852.34;;;22.92;42.42
60725;BME280;59881;36.722;-4.462;2023-04-24T12:30:46;100880.59;;;23.11;43.26
60725;BME280;59881;36.722;-4.462;2023-04-24T12:33:17;100870.22;;;23.08;43.47
60725;BME280;59881;36.722;-4.462;2023-04-24T12:35:43;100893.88;;;23.12;43.13
60725;BME280;59881;36.722;-4.462;2023-04-24T12:38:11;100871.34;;;23.13;43.04
60725;BME280;59881;36.722;-4.462;2023-04-24T12:40:38;100863.91;;;23.01;42.94
60725;BME280;59881;36.722;-4.462;2023-04-24T12:43:17;100879.94;;;23.09;43.05
60725;BME280;59881;36.722;-4.462;2023-04-24T12:45:42;100855.31;;;22.97;43.53
60725;BME280;59881;36.722;-4.462;2023-04-24T12:48:09;100840.03;;;22.75;43.19
60725;BME280;59881;36.722;-4.462;2023-04-24T12:50:34;100669.47;;;21.55;43.32
60725;BME280;59881;36.722;-4.462;2023-04-24T12:53:00;100898.66;;;22.94;43.10
60725;BME280;59881;36.722;-4.462;2023-04-24T12:55:26;100832.41;;;22.63;42.82
60725;BME280;59881;36.722;-4.462;2023-04-24T12:57:51;100866.31;;;22.87;42.60
60725;BME280;59881;36.722;-4.462;2023-04-24T13:00:18;100879.09;;;22.85;43.19
60725;BME280;59881;36.722;-4.462;2023-04-24T13:02:43;100897.94;;;22.77;43.02
60725;BME280;59881;36.722;-4.462;2023-04-24T13:05:09;100867.56;;;22.77;43.84